Portada
METAR-TAF:

METAR-TAF

Aeroports :

Karup, Dinamarca

latitud: 56-18N, longitud: 009-07E, altitud: 52 m

Observació

L'informe es va fer fa 17 minuts, a les 11:50 UTC
Vent 6 kt del Sud-Est
Temperatura 18°C
Humitat 64%
Pressió 1012 hPa
Visibilitat 10 km o més

METAR: EKKA 051150Z AUTO 13006KT 9999 BKN075/// OVC098/// 18/11 Q1012 NOSIG

Hora: 14:07 (12:07 UTC)

Pronòstic

L'informe es va fer fa 1 hora i 5 minuts, a les 11:02 UTC
Pronòstic vàlid del 05 a les 12 UTC al 06 a les 12 UTC
Vent 8 kt del Sud-Est
Visibilitat 10 km o més
Cel ennuvolat a una alçada de 4000 ft
Temporalment
l' 05 a les 12 UTC al 05 a les 17 UTC
Escasses núvols a una alçada de 3000 ft, Cumulonimbus.
Temporalment
l' 06 a les 10 UTC al 06 a les 12 UTC
Núvols disperses a una alçada de 3000 ft, Cumulonimbus.
xàfecs de pluja

TAF: EKKA 051102Z 0512/0612 13008KT 9999 BKN040 TEMPO 0512/0517 FEW030CB TEMPO 0610/0612 -SHRA SCT030CB

Observacions i pronòstics meteorològics de més de 4000 aeroports (METAR i TAF).

Les estacions disponibles són els punts grocs i vermells al mapa.

Posi el ratolí al punt desitjat per veure el nom de l'estació.

Feu clic per veure les observacions i els pronòstics meteorològics.

Per canviar el mapa: feu clic els botons verds amb una creu de color negre per apropar; al botó verd amb un guió per allunyar la imatge; o en les fletxes verdes per a mapes adjacents.


METAR-TAF: